Time;durP1;ratioP1;P1;durP2;ratioP2;P2;SDS_P1;SDS_P2;PMS_P1;PMS_P2;Temp;Humidity;BMP_temperature;BMP_pressure;BME280_temperature;BME280_humidity;BME280_pressure;Samples;Min_cycle;Max_cycle;Signal;HPM_P1;HPM_P2
2021/09/03 00:00:17;;;;;;;7.08;4.40;;;;;;;13.13;88.21;97267.64;1687256;84;21030;-80
2021/09/03 00:02:45;;;;;;;7.85;5.15;;;;;;;13.18;88.16;97271.41;1684034;84;21056;-80
2021/09/03 00:05:18;;;;;;;7.42;5.22;;;;;;;13.24;88.16;97271.18;1707976;84;21000;-80
2021/09/03 00:07:44;;;;;;;9.23;5.30;;;;;;;13.29;88.25;97266.23;1684108;84;21023;-80
2021/09/03 00:10:11;;;;;;;7.72;5.65;;;;;;;13.33;88.29;97273.20;1684364;84;21016;-80
2021/09/03 00:12:37;;;;;;;7.08;4.70;;;;;;;13.32;88.26;97272.40;1685827;84;21063;-80
2021/09/03 00:15:05;;;;;;;5.90;4.72;;;;;;;13.36;88.31;97272.87;1689003;84;20964;-80
2021/09/03 00:17:31;;;;;;;7.62;4.90;;;;;;;13.39;88.03;97277.73;1695912;82;21031;-80
2021/09/03 00:19:56;;;;;;;7.03;4.83;;;;;;;13.40;87.96;97276.26;1692926;83;21070;-80
2021/09/03 00:22:22;;;;;;;6.33;4.60;;;;;;;13.42;87.88;97275.58;1689351;84;21024;-80
2021/09/03 00:24:48;;;;;;;6.30;5.47;;;;;;;13.45;87.78;97275.72;1694317;84;20990;-80
2021/09/03 00:27:13;;;;;;;8.08;5.05;;;;;;;13.44;87.73;97272.30;1700440;83;21018;-80
2021/09/03 00:29:39;;;;;;;5.70;4.45;;;;;;;13.44;87.70;97274.09;1707454;83;21436;-80
2021/09/03 00:32:06;;;;;;;6.45;5.00;;;;;;;13.43;87.79;97269.37;1697879;83;21019;-80
2021/09/03 00:34:32;;;;;;;6.15;4.72;;;;;;;13.43;87.85;97266.76;1701582;83;21070;-80
2021/09/03 00:36:57;;;;;;;8.78;4.60;;;;;;;13.43;87.75;97268.56;1701474;83;21482;-80
2021/09/03 00:39:23;;;;;;;6.78;4.78;;;;;;;13.43;87.74;97268.06;1703159;84;21007;-80
2021/09/03 00:41:50;;;;;;;7.58;4.58;;;;;;;13.45;87.80;97263.47;1693711;84;21067;-80
2021/09/03 00:44:15;;;;;;;7.92;5.17;;;;;;;13.48;87.59;97257.08;1695675;84;21152;-80
2021/09/03 00:46:42;;;;;;;9.75;6.17;;;;;;;13.49;87.42;97258.70;1695550;84;21102;-80
2021/09/03 00:49:08;;;;;;;6.45;5.08;;;;;;;13.48;87.22;97254.47;1701137;84;21058;-80
2021/09/03 00:51:34;;;;;;;8.58;6.17;;;;;;;13.47;87.29;97251.55;1699419;84;21146;-80
2021/09/03 00:53:59;;;;;;;6.40;5.00;;;;;;;13.44;87.03;97246.69;1695275;84;21071;-80
2021/09/03 00:56:25;;;;;;;6.92;4.65;;;;;;;13.40;86.93;97242.81;1701475;83;21434;-80
2021/09/03 00:58:51;;;;;;;7.08;5.28;;;;;;;13.37;86.86;97241.87;1681404;84;21096;-79
2021/09/03 01:01:19;;;;;;;6.50;4.58;;;;;;;13.35;86.75;97243.85;1707584;83;21106;-80
2021/09/03 01:03:45;;;;;;;8.10;4.70;;;;;;;13.30;86.62;97234.42;1690121;84;21032;-80
2021/09/03 01:06:10;;;;;;;7.00;4.80;;;;;;;13.28;86.54;97231.98;1694021;84;21134;-80
2021/09/03 01:08:36;;;;;;;10.05;5.10;;;;;;;13.24;86.46;97233.83;1662543;84;21410;-80
2021/09/03 01:11:02;;;;;;;8.53;5.15;;;;;;;13.20;86.52;97232.89;1680774;84;21338;-80
2021/09/03 01:13:28;;;;;;;8.78;5.30;;;;;;;13.17;86.63;97232.38;1688839;84;20996;-80
2021/09/03 01:15:53;;;;;;;6.60;4.28;;;;;;;13.12;86.65;97232.11;1706369;83;21034;-81
2021/09/03 01:18:19;;;;;;;8.63;4.35;;;;;;;13.08;86.65;97225.63;1698008;84;21039;-80
2021/09/03 01:20:46;;;;;;;7.67;4.60;;;;;;;13.05;86.55;97222.88;1696156;84;21363;-80
2021/09/03 01:23:13;;;;;;;5.97;4.17;;;;;;;13.03;86.41;97224.86;1691876;84;21015;-80
2021/09/03 01:25:40;;;;;;;6.78;5.05;;;;;;;13.01;86.46;97214.26;1690944;84;21454;-80
2021/09/03 01:28:06;;;;;;;6.92;4.92;;;;;;;12.97;86.38;97216.41;1686370;84;21077;-80
2021/09/03 01:30:31;;;;;;;8.15;5.30;;;;;;;12.92;86.40;97212.23;1692841;84;21099;-80
2021/09/03 01:32:57;;;;;;;7.00;5.15;;;;;;;12.88;86.63;97207.05;1687453;84;21482;-80
2021/09/03 01:35:23;;;;;;;7.45;4.80;;;;;;;12.87;86.79;97211.95;1694805;84;20983;-80
2021/09/03 01:37:48;;;;;;;7.50;4.60;;;;;;;12.87;86.91;97210.65;1718161;83;21052;-80
2021/09/03 01:40:14;;;;;;;9.78;5.30;;;;;;;12.91;86.97;97210.61;1688809;84;21058;-80
2021/09/03 01:42:40;;;;;;;6.65;4.50;;;;;;;12.92;86.98;97217.44;1692306;84;21039;-80
2021/09/03 01:45:07;;;;;;;5.62;3.95;;;;;;;12.95;87.13;97211.87;1678199;84;21054;-80
2021/09/03 01:47:32;;;;;;;5.95;4.60;;;;;;;12.98;87.16;97215.92;1691859;84;21045;-80
2021/09/03 01:49:58;;;;;;;8.98;5.95;;;;;;;13.02;87.28;97218.52;1689885;84;21046;-80
2021/09/03 01:52:24;;;;;;;7.28;4.58;;;;;;;13.05;87.52;97212.45;1693199;84;21048;-80
2021/09/03 01:54:50;;;;;;;5.97;4.55;;;;;;;13.06;87.59;97213.25;1684488;84;21019;-80
2021/09/03 01:57:15;;;;;;;8.03;4.47;;;;;;;13.04;87.53;97212.13;1684592;84;21049;-80
2021/09/03 01:59:41;;;;;;;5.87;4.55;;;;;;;13.02;87.38;97210.20;1688884;84;21014;-80
2021/09/03 02:02:07;;;;;;;6.00;4.33;;;;;;;13.00;87.30;97206.92;1678127;84;21577;-80
2021/09/03 02:04:33;;;;;;;7.03;4.92;;;;;;;12.96;87.10;97204.85;1712573;83;21010;-80
2021/09/03 02:06:58;;;;;;;8.25;5.50;;;;;;;12.93;86.90;97203.41;1674448;84;21374;-80
2021/09/03 02:09:24;;;;;;;10.00;5.50;;;;;;;12.91;87.03;97206.70;1657933;84;21468;-80
2021/09/03 02:11:51;;;;;;;7.22;4.70;;;;;;;12.92;87.07;97202.60;1691116;84;21458;-80
2021/09/03 02:14:17;;;;;;;6.87;4.42;;;;;;;12.90;87.10;97201.97;1687228;84;20987;-80
2021/09/03 02:16:43;;;;;;;7.17;4.65;;;;;;;12.87;86.95;97196.30;1691753;84;21486;-80
2021/09/03 02:19:08;;;;;;;7.58;4.25;;;;;;;12.88;86.85;97200.53;1691422;84;21093;-80
2021/09/03 02:21:34;;;;;;;7.22;4.80;;;;;;;12.85;86.78;97195.17;1696642;84;21029;-80
2021/09/03 02:24:00;;;;;;;7.08;4.90;;;;;;;12.85;86.91;97195.64;1684934;83;21156;-80
2021/09/03 02:26:26;;;;;;;7.70;5.03;;;;;;;12.83;86.80;97191.09;1688464;84;21095;-80
2021/09/03 02:28:51;;;;;;;7.65;5.30;;;;;;;12.78;86.80;97190.33;1678433;84;21099;-80
2021/09/03 02:31:17;;;;;;;7.03;4.53;;;;;;;12.77;86.87;97186.59;1692169;84;21098;-80
2021/09/03 02:33:43;;;;;;;6.62;4.37;;;;;;;12.76;86.85;97187.09;1687959;84;21477;-80
2021/09/03 02:36:09;;;;;;;6.12;4.00;;;;;;;12.73;86.78;97182.73;1692192;83;21051;-80
2021/09/03 02:38:36;;;;;;;7.78;4.83;;;;;;;12.72;86.82;97179.80;1699768;83;21019;-80
2021/09/03 02:41:01;;;;;;;7.15;4.85;;;;;;;12.69;86.78;97174.91;1690444;84;22301;-80
2021/09/03 02:43:27;;;;;;;10.75;5.22;;;;;;;12.68;86.90;97170.69;1681825;84;21069;-80
2021/09/03 02:45:53;;;;;;;7.12;5.10;;;;;;;12.65;86.79;97171.04;1686921;84;21012;-80
2021/09/03 02:48:19;;;;;;;10.03;4.80;;;;;;;12.62;86.84;97170.91;1690486;84;21083;-80
2021/09/03 02:50:45;;;;;;;6.58;4.40;;;;;;;12.58;86.93;97163.93;1694187;84;21016;-80
2021/09/03 02:53:11;;;;;;;7.62;4.00;;;;;;;12.56;86.92;97165.09;1684494;84;21007;-80
2021/09/03 02:55:37;;;;;;;7.10;4.05;;;;;;;12.54;86.98;97166.58;1688050;84;21379;-79
2021/09/03 02:58:02;;;;;;;6.62;3.87;;;;;;;12.54;86.98;97159.25;1686970;84;21027;-80
2021/09/03 03:00:28;;;;;;;6.50;4.50;;;;;;;12.57;87.03;97161.50;1681606;84;21077;-80
2021/09/03 03:02:54;;;;;;;7.00;4.97;;;;;;;12.55;86.96;97156.47;1654017;84;21007;-80
2021/09/03 03:05:21;;;;;;;6.00;4.87;;;;;;;12.54;86.96;97154.04;1685718;84;21478;-80
2021/09/03 03:07:46;;;;;;;9.05;4.95;;;;;;;12.53;87.06;97153.72;1693469;84;21069;-80
2021/09/03 03:10:12;;;;;;;7.75;4.95;;;;;;;12.47;87.17;97155.20;1690195;84;21078;-80
2021/09/03 03:12:38;;;;;;;8.93;5.67;;;;;;;12.48;87.32;97156.02;1681272;84;21615;-80
2021/09/03 03:15:06;;;;;;;8.70;4.95;;;;;;;12.50;87.29;97154.85;1694614;84;21118;-80
2021/09/03 03:17:32;;;;;;;6.35;3.90;;;;;;;12.51;87.14;97157.78;1695509;84;21015;-80
2021/09/03 03:19:57;;;;;;;8.88;4.62;;;;;;;12.51;87.07;97151.26;1664385;84;21034;-80
2021/09/03 03:22:23;;;;;;;6.40;4.95;;;;;;;12.50;87.02;97145.73;1691325;83;21012;-80
2021/09/03 03:24:49;;;;;;;6.35;4.53;;;;;;;12.48;87.00;97145.09;1699782;84;21073;-80
2021/09/03 03:27:14;;;;;;;7.17;4.70;;;;;;;12.47;87.11;97143.48;1695032;83;20976;-80
2021/09/03 03:29:40;;;;;;;6.87;4.33;;;;;;;12.44;87.16;97146.94;1709618;82;21023;-80
2021/09/03 03:32:06;;;;;;;5.97;4.37;;;;;;;12.41;87.35;97145.49;1700884;83;21012;-80
2021/09/03 03:34:32;;;;;;;6.22;4.08;;;;;;;12.41;87.38;97148.09;1697831;83;21074;-80
2021/09/03 03:36:58;;;;;;;5.37;4.10;;;;;;;12.42;87.34;97144.50;1688288;84;21039;-80
2021/09/03 03:39:24;;;;;;;7.70;4.97;;;;;;;12.44;87.38;97149.05;1692517;84;21146;-80
2021/09/03 03:41:52;;;;;;;7.60;4.58;;;;;;;12.45;87.37;97140.73;1683066;84;21430;-80
2021/09/03 03:44:18;;;;;;;6.67;4.65;;;;;;;12.47;87.30;97146.09;1677668;84;21110;-80
2021/09/03 03:46:44;;;;;;;6.37;4.42;;;;;;;12.45;87.18;97149.36;1689428;84;21052;-80
2021/09/03 03:49:09;;;;;;;7.47;4.25;;;;;;;12.40;87.44;97146.48;1653703;85;21486;-79
2021/09/03 03:51:35;;;;;;;6.80;4.37;;;;;;;12.42;87.59;97147.11;1668381;84;21014;-79
2021/09/03 03:54:01;;;;;;;6.25;4.35;;;;;;;12.43;87.44;97144.82;1695858;83;20974;-80
2021/09/03 03:56:27;;;;;;;5.85;3.50;;;;;;;12.43;87.37;97145.31;1683016;84;21367;-80
2021/09/03 03:58:52;;;;;;;7.17;4.33;;;;;;;12.42;87.35;97141.09;1674376;84;21104;-80
2021/09/03 04:01:18;;;;;;;6.83;4.70;;;;;;;12.42;87.39;97141.90;1691661;83;21049;-80
2021/09/03 04:03:44;;;;;;;8.08;5.10;;;;;;;12.40;87.50;97138.66;1698305;83;21010;-80
2021/09/03 04:06:10;;;;;;;6.35;4.55;;;;;;;12.40;87.56;97136.55;1679498;84;21024;-80
2021/09/03 04:08:36;;;;;;;7.05;3.98;;;;;;;12.38;87.53;97139.83;1676705;84;21046;-80
2021/09/03 04:11:02;;;;;;;5.95;4.20;;;;;;;12.37;87.52;97136.41;1694191;84;22937;-80
2021/09/03 04:13:27;;;;;;;7.37;4.42;;;;;;;12.39;87.46;97136.23;1688690;84;21015;-80
2021/09/03 04:15:54;;;;;;;5.25;3.67;;;;;;;12.41;87.52;97137.67;1683367;84;21036;-80
2021/09/03 04:18:19;;;;;;;7.60;4.50;;;;;;;12.43;87.45;97139.61;1696542;83;21039;-80
2021/09/03 04:20:45;;;;;;;6.30;4.50;;;;;;;12.44;87.35;97136.51;1696115;84;21035;-80
2021/09/03 04:23:11;;;;;;;7.17;4.37;;;;;;;12.43;87.44;97135.70;1649219;85;21513;-80
2021/09/03 04:25:37;;;;;;;7.17;4.17;;;;;;;12.40;87.61;97129.53;1700852;83;21016;-80
2021/09/03 04:28:03;;;;;;;7.10;4.20;;;;;;;12.39;87.61;97130.52;1667202;84;21038;-80
2021/09/03 04:30:29;;;;;;;5.83;4.30;;;;;;;12.41;87.56;97136.38;1706778;83;21095;-80
2021/09/03 04:32:55;;;;;;;6.42;4.22;;;;;;;12.41;87.46;97128.55;1686329;84;21071;-80
2021/09/03 04:35:21;;;;;;;8.03;4.15;;;;;;;12.43;87.52;97129.67;1682947;84;21049;-80
2021/09/03 04:37:48;;;;;;;5.05;3.70;;;;;;;12.44;87.64;97128.69;1672780;83;21481;-80
2021/09/03 04:40:17;;;;;;;5.65;3.83;;;;;;;12.45;87.71;97124.60;1709042;83;21066;-80
2021/09/03 04:42:43;;;;;;;7.22;4.65;;;;;;;12.45;87.61;97125.91;1705392;83;21104;-80
2021/09/03 04:45:10;;;;;;;6.53;4.40;;;;;;;12.48;87.78;97132.56;1658953;85;21425;-80
2021/09/03 04:47:37;;;;;;;6.87;4.40;;;;;;;12.49;87.75;97131.58;1691698;84;21091;-79
2021/09/03 04:50:07;;;;;;;5.78;4.30;;;;;;;12.49;87.78;97127.66;1690049;84;21150;-80
2021/09/03 04:52:33;;;;;;;6.45;4.30;;;;;;;12.48;87.76;97130.77;1685450;84;21102;-80
2021/09/03 04:54:59;;;;;;;6.53;3.80;;;;;;;12.47;87.78;97127.84;1698978;83;21162;-79
2021/09/03 04:57:24;;;;;;;7.10;4.08;;;;;;;12.50;87.78;97130.59;1689293;84;21066;-79
2021/09/03 04:59:50;;;;;;;6.35;4.37;;;;;;;12.53;87.77;97136.78;1677345;84;21038;-80
2021/09/03 05:02:17;;;;;;;6.10;4.47;;;;;;;12.53;87.88;97128.46;1685909;84;21347;-80
2021/09/03 05:04:43;;;;;;;8.55;4.53;;;;;;;12.56;87.91;97128.59;1690660;84;21106;-80
2021/09/03 05:07:10;;;;;;;5.10;4.00;;;;;;;12.55;87.97;97122.58;1682676;84;21035;-79
2021/09/03 05:09:36;;;;;;;6.37;4.53;;;;;;;12.55;87.99;97129.59;1692519;84;21331;-80
2021/09/03 05:12:02;;;;;;;5.33;3.95;;;;;;;12.55;87.98;97132.20;1660008;84;21030;-79
2021/09/03 05:14:28;;;;;;;6.47;4.05;;;;;;;12.56;88.08;97129.41;1684739;84;21084;-80
2021/09/03 05:16:54;;;;;;;6.58;3.80;;;;;;;12.59;88.11;97124.33;1657698;84;21101;-80
2021/09/03 05:19:20;;;;;;;6.62;4.55;;;;;;;12.63;88.28;97132.11;1677744;84;21011;-80
2021/09/03 05:21:47;;;;;;;6.72;5.05;;;;;;;12.67;88.13;97128.65;1690453;84;21007;-80
2021/09/03 05:24:12;;;;;;;6.15;4.58;;;;;;;12.68;88.19;97131.08;1681944;84;21091;-80
2021/09/03 05:26:38;;;;;;;6.22;4.33;;;;;;;12.66;88.13;97131.75;1697508;84;21079;-80
2021/09/03 05:29:04;;;;;;;6.62;3.67;;;;;;;12.68;88.31;97127.66;1661952;84;21018;-80
2021/09/03 05:31:30;;;;;;;4.80;3.98;;;;;;;12.69;88.40;97128.82;1687007;84;21433;-79
2021/09/03 05:33:56;;;;;;;5.08;3.62;;;;;;;12.72;88.34;97123.73;1677699;84;21041;-80
2021/09/03 05:36:22;;;;;;;10.40;4.28;;;;;;;12.77;88.51;97121.41;1683662;84;21060;-80
2021/09/03 05:38:50;;;;;;;7.28;4.50;;;;;;;12.79;88.40;97128.06;1679305;84;21075;-80
2021/09/03 05:41:16;;;;;;;5.92;4.35;;;;;;;12.86;88.59;97125.56;1671156;85;21044;-80
2021/09/03 05:43:42;;;;;;;5.62;4.65;;;;;;;12.91;88.69;97126.64;1680131;84;20987;-81
2021/09/03 05:46:08;;;;;;;5.60;4.20;;;;;;;12.95;88.67;97121.06;1683287;84;21051;-80
2021/09/03 05:48:34;;;;;;;4.75;3.50;;;;;;;12.99;88.70;97130.15;1684350;84;21049;-80
2021/09/03 05:51:00;;;;;;;6.45;3.58;;;;;;;13.03;88.73;97123.11;1693626;84;20976;-80
2021/09/03 05:53:26;;;;;;;5.83;3.85;;;;;;;13.08;88.83;97123.88;1681856;84;21043;-80
2021/09/03 05:55:51;;;;;;;5.72;3.90;;;;;;;13.13;88.78;97124.13;1656106;84;21075;-80
2021/09/03 05:58:17;;;;;;;6.53;4.20;;;;;;;13.19;88.91;97124.28;1691660;84;21023;-80
2021/09/03 06:00:43;;;;;;;6.28;4.08;;;;;;;13.25;88.89;97116.21;1697775;84;21114;-80
2021/09/03 06:03:09;;;;;;;5.53;4.25;;;;;;;13.27;88.82;97119.95;1686775;83;21007;-80
2021/09/03 06:05:35;;;;;;;5.97;3.98;;;;;;;13.28;88.76;97115.84;1709388;83;21058;-80
2021/09/03 06:08:02;;;;;;;5.80;4.33;;;;;;;13.33;88.66;97111.38;1683322;84;21062;-80
2021/09/03 06:10:27;;;;;;;4.90;3.90;;;;;;;13.36;88.57;97110.55;1699614;83;20994;-80
2021/09/03 06:12:53;;;;;;;5.12;4.20;;;;;;;13.41;88.50;97111.30;1697314;84;21074;-80
2021/09/03 06:15:19;;;;;;;5.35;3.90;;;;;;;13.45;88.62;97112.55;1707463;84;21138;-80
2021/09/03 06:17:44;;;;;;;5.90;4.12;;;;;;;13.49;88.66;97109.88;1699129;84;21112;-80
2021/09/03 06:20:12;;;;;;;8.10;3.87;;;;;;;13.51;88.50;97113.15;1696750;84;21476;-80
2021/09/03 06:22:37;;;;;;;6.20;3.77;;;;;;;13.55;88.36;97109.17;1692309;84;21027;-80
2021/09/03 06:25:04;;;;;;;5.30;3.45;;;;;;;13.60;88.36;97109.42;1690090;84;21473;-80
2021/09/03 06:27:30;;;;;;;5.72;3.75;;;;;;;13.65;88.19;97107.07;1701986;83;21014;-80
2021/09/03 06:29:57;;;;;;;5.12;4.12;;;;;;;13.69;88.00;97108.84;1687960;84;21426;-80
2021/09/03 06:32:25;;;;;;;6.90;4.80;;;;;;;13.72;87.92;97111.08;1688097;84;21039;-80
2021/09/03 06:34:55;;;;;;;5.35;4.03;;;;;;;13.74;87.92;97113.01;1672961;84;21079;-80
2021/09/03 06:37:21;;;;;;;5.83;4.35;;;;;;;13.75;87.73;97111.52;1688234;83;21030;-80
2021/09/03 06:39:47;;;;;;;5.90;4.08;;;;;;;13.78;87.62;97109.84;1716532;82;21075;-80
2021/09/03 06:42:13;;;;;;;6.00;3.92;;;;;;;13.82;87.48;97109.77;1696462;83;21015;-80
2021/09/03 06:44:39;;;;;;;6.00;4.60;;;;;;;13.87;87.52;97109.74;1710591;82;21085;-80
2021/09/03 06:47:05;;;;;;;6.10;4.33;;;;;;;13.91;87.44;97110.48;1674182;84;21431;-80
2021/09/03 06:49:32;;;;;;;6.08;4.33;;;;;;;13.95;87.31;97112.23;1675468;84;21112;-80
2021/09/03 06:51:57;;;;;;;6.05;3.92;;;;;;;13.98;87.27;97105.32;1673784;84;21027;-80
2021/09/03 06:54:23;;;;;;;7.05;4.10;;;;;;;13.99;87.12;97106.47;1704475;84;21048;-80
2021/09/03 06:56:49;;;;;;;6.40;4.28;;;;;;;14.01;86.78;97108.89;1703063;84;21371;-80
2021/09/03 06:59:15;;;;;;;7.45;4.58;;;;;;;14.06;86.54;97112.56;1690925;84;21076;-80
2021/09/03 07:01:40;;;;;;;7.37;4.75;;;;;;;14.12;86.78;97104.47;1685889;84;21031;-80
2021/09/03 07:04:06;;;;;;;6.50;4.42;;;;;;;14.21;87.08;97106.47;1703855;84;21079;-80
2021/09/03 07:06:32;;;;;;;6.45;4.37;;;;;;;14.25;86.69;97106.41;1706324;84;21327;-80
2021/09/03 07:08:58;;;;;;;5.65;4.03;;;;;;;14.31;86.68;97106.45;1697539;84;21679;-80
2021/09/03 07:11:24;;;;;;;6.62;5.08;;;;;;;14.37;86.25;97108.34;1703679;84;21031;-80
2021/09/03 07:13:50;;;;;;;7.05;5.45;;;;;;;14.46;86.47;97113.45;1696331;84;21006;-80
2021/09/03 07:16:16;;;;;;;5.87;4.58;;;;;;;14.54;85.73;97108.11;1695906;84;21479;-80
2021/09/03 07:18:42;;;;;;;6.20;4.60;;;;;;;14.62;85.93;97106.15;1688301;84;21034;-80
2021/09/03 07:21:08;;;;;;;7.95;5.00;;;;;;;14.66;85.58;97107.41;1692314;84;21096;-80
2021/09/03 07:23:33;;;;;;;6.58;4.90;;;;;;;14.75;85.41;97098.91;1684170;84;21456;-80
2021/09/03 07:26:01;;;;;;;7.50;5.37;;;;;;;14.86;84.98;97097.59;1693994;84;21102;-80
2021/09/03 07:28:27;;;;;;;7.50;5.70;;;;;;;14.94;84.63;97095.61;1690012;84;21074;-80
2021/09/03 07:30:53;;;;;;;7.45;6.12;;;;;;;15.04;84.65;97095.28;1677434;84;20991;-80
2021/09/03 07:33:19;;;;;;;8.83;4.83;;;;;;;15.12;83.80;97100.85;1701010;84;21043;-80
2021/09/03 07:35:45;;;;;;;7.00;5.10;;;;;;;15.16;84.23;97098.98;1686217;84;20979;-80
2021/09/03 07:38:11;;;;;;;7.30;5.45;;;;;;;15.23;84.11;97101.12;1701073;84;21454;-80
2021/09/03 07:40:37;;;;;;;6.90;5.62;;;;;;;15.33;83.77;97096.86;1695763;83;20995;-80
2021/09/03 07:43:06;;;;;;;7.58;5.47;;;;;;;15.40;83.53;97097.69;1686312;84;21092;-80
2021/09/03 07:45:36;;;;;;;8.30;6.12;;;;;;;15.47;83.50;97094.62;1715078;83;21042;-80
2021/09/03 07:48:03;;;;;;;9.40;5.92;;;;;;;15.56;83.38;97096.05;1688482;84;21104;-80
2021/09/03 07:50:29;;;;;;;7.87;5.78;;;;;;;15.67;83.23;97089.98;1725164;82;21228;-80
2021/09/03 07:52:55;;;;;;;6.70;4.83;;;;;;;15.71;82.88;97091.20;1718837;83;21067;-80
2021/09/03 07:55:21;;;;;;;7.97;6.08;;;;;;;15.76;83.06;97085.66;1716904;83;21014;-80
2021/09/03 07:57:47;;;;;;;8.45;6.20;;;;;;;15.81;80.84;97085.09;1718879;83;21380;-80
2021/09/03 08:00:14;;;;;;;8.33;5.83;;;;;;;15.86;81.49;97083.49;1717401;83;21034;-80
2021/09/03 08:02:39;;;;;;;7.80;5.80;;;;;;;15.90;81.74;97085.20;1720009;83;21089;-80
2021/09/03 08:05:06;;;;;;;10.05;6.87;;;;;;;15.95;82.29;97086.75;1724223;83;20971;-80
2021/09/03 08:07:32;;;;;;;8.23;6.50;;;;;;;16.03;81.84;97092.30;1724136;83;21039;-80
2021/09/03 08:09:58;;;;;;;11.12;6.05;;;;;;;16.09;81.86;97088.38;1695543;84;21080;-80
2021/09/03 08:12:24;;;;;;;10.10;7.25;;;;;;;16.17;81.72;97087.39;1688014;84;21377;-80
2021/09/03 08:14:51;;;;;;;12.30;9.93;;;;;;;16.25;81.66;97079.83;1694499;83;21021;-80
2021/09/03 08:17:17;;;;;;;13.78;11.00;;;;;;;16.34;80.95;97085.19;1671586;84;21005;-80
2021/09/03 08:19:43;;;;;;;9.00;7.37;;;;;;;16.41;80.67;97082.05;1691243;84;20972;-80
2021/09/03 08:22:10;;;;;;;7.62;5.85;;;;;;;16.51;81.00;97085.09;1680757;84;21035;-80
2021/09/03 08:24:36;;;;;;;10.70;6.12;;;;;;;16.59;79.98;97087.50;1688059;84;21414;-80
2021/09/03 08:27:01;;;;;;;7.50;5.75;;;;;;;16.65;79.21;97076.22;1679205;84;21087;-80
2021/09/03 08:29:27;;;;;;;10.48;5.83;;;;;;;16.73;78.88;97077.34;1651982;84;21023;-80
2021/09/03 08:31:53;;;;;;;8.95;5.85;;;;;;;16.80;79.00;97074.22;1717288;83;21361;-80
2021/09/03 08:34:19;;;;;;;39.65;21.77;;;;;;;16.99;79.23;97079.13;1692068;84;21093;-80
2021/09/03 08:36:44;;;;;;;10.98;8.73;;;;;;;17.14;78.89;97076.27;1696600;84;21073;-80
2021/09/03 08:39:11;;;;;;;10.55;7.62;;;;;;;17.28;77.31;97073.92;1662615;85;21087;-80
2021/09/03 08:41:37;;;;;;;16.25;14.35;;;;;;;17.35;76.73;97075.20;1678668;84;21034;-80
2021/09/03 08:44:03;;;;;;;21.75;18.85;;;;;;;17.37;76.30;97068.72;1701567;84;21071;-80
2021/09/03 08:46:32;;;;;;;20.95;16.50;;;;;;;17.42;76.07;97069.94;1698817;84;21027;-81
2021/09/03 08:49:00;;;;;;;8.40;5.80;;;;;;;17.44;76.18;97069.22;1695242;84;21425;-80
2021/09/03 08:51:26;;;;;;;7.50;5.05;;;;;;;17.45;76.41;97076.09;1691871;84;20964;-80
2021/09/03 08:53:52;;;;;;;7.00;5.33;;;;;;;17.47;75.90;97067.48;1662354;84;21029;-80
2021/09/03 08:56:22;;;;;;;8.00;4.83;;;;;;;17.45;75.83;97066.38;1669479;84;21068;-80
2021/09/03 08:58:48;;;;;;;7.15;5.28;;;;;;;17.45;75.89;97066.89;1700274;84;21489;-80
2021/09/03 09:01:17;;;;;;;8.55;5.90;;;;;;;17.47;74.76;97062.23;1685912;84;21450;-80
2021/09/03 09:03:46;;;;;;;5.75;4.95;;;;;;;17.52;74.97;97057.95;1685043;84;21011;-80
2021/09/03 09:06:26;;;;;;;5.47;4.35;;;;;;;17.64;74.40;97053.66;1692125;84;21074;-81
2021/09/03 09:08:59;;;;;;;24.45;14.00;;;;;;;17.70;74.85;97048.89;1688293;84;21066;-81
2021/09/03 09:11:28;;;;;;;11.93;7.75;;;;;;;17.69;74.44;97051.73;1696212;84;21050;-80
2021/09/03 09:14:04;;;;;;;9.10;6.33;;;;;;;17.73;73.95;97051.61;1688430;84;22106;-80
2021/09/03 09:16:30;;;;;;;10.38;6.40;;;;;;;17.69;73.59;97044.66;1695098;84;20999;-80
2021/09/03 09:19:01;;;;;;;7.42;5.90;;;;;;;17.62;72.68;97050.44;1685598;84;21061;-80
2021/09/03 09:21:38;;;;;;;8.87;6.60;;;;;;;17.54;72.84;97045.92;1696405;84;21018;-81
2021/09/03 09:24:11;;;;;;;8.25;5.55;;;;;;;17.61;73.19;97043.58;1682694;84;21059;-80
2021/09/03 09:26:54;;;;;;;5.75;4.20;;;;;;;17.75;72.02;97040.91;1690431;84;21082;-80
2021/09/03 09:29:36;;;;;;;5.30;3.95;;;;;;;17.90;71.80;97041.44;1686450;84;21007;-80
2021/09/03 09:32:07;;;;;;;5.55;4.08;;;;;;;18.06;71.74;97033.03;1707703;84;21075;-80
2021/09/03 09:34:37;;;;;;;5.75;4.15;;;;;;;18.19;70.91;97031.61;1701031;84;21087;-80
2021/09/03 09:37:05;;;;;;;6.72;5.62;;;;;;;18.32;70.66;97034.65;1696307;84;21091;-81
2021/09/03 09:39:51;;;;;;;7.17;5.62;;;;;;;18.39;70.39;97030.67;1700390;84;21389;-81
2021/09/03 09:42:29;;;;;;;5.00;4.03;;;;;;;18.49;70.93;97030.46;1663944;85;21063;-81
2021/09/03 09:45:08;;;;;;;8.40;7.42;;;;;;;18.60;67.25;97032.39;1685244;84;21531;-81
2021/09/03 09:47:35;;;;;;;7.95;6.25;;;;;;;18.69;70.00;97034.77;1683482;84;21439;-81
2021/09/03 09:50:29;;;;;;;10.03;6.72;;;;;;;18.88;69.61;97024.58;1683518;84;21147;-80
2021/09/03 09:53:07;;;;;;;6.25;4.95;;;;;;;19.06;68.34;97029.05;1703983;84;21106;-81
2021/09/03 09:55:33;;;;;;;7.78;5.40;;;;;;;19.16;67.71;97028.00;1698626;84;21475;-81
2021/09/03 09:57:58;;;;;;;5.95;4.37;;;;;;;19.26;68.69;97024.86;1685606;84;21014;-81
2021/09/03 10:00:26;;;;;;;5.15;4.15;;;;;;;19.27;67.28;97018.05;1689076;84;21105;-81
2021/09/03 10:02:52;;;;;;;7.47;4.70;;;;;;;19.09;66.29;97025.45;1695605;84;21038;-81
2021/09/03 10:05:17;;;;;;;6.50;5.12;;;;;;;18.95;66.13;97021.35;1699856;84;21067;-81
2021/09/03 10:07:43;;;;;;;8.93;5.92;;;;;;;18.89;66.71;97019.60;1692534;84;21079;-81
2021/09/03 10:10:10;;;;;;;10.48;7.22;;;;;;;18.77;66.29;97022.66;1696128;84;21004;-81
2021/09/03 10:12:36;;;;;;;8.63;7.00;;;;;;;18.70;65.64;97021.89;1696407;84;21062;-81
2021/09/03 10:15:02;;;;;;;9.10;6.90;;;;;;;18.83;65.31;97013.87;1680874;84;21624;-81
2021/09/03 10:17:30;;;;;;;6.33;4.47;;;;;;;18.95;66.49;97017.41;1695009;84;21080;-81
2021/09/03 10:19:55;;;;;;;14.70;9.93;;;;;;;19.01;66.85;97007.30;1693065;84;21114;-81
2021/09/03 10:22:22;;;;;;;9.45;7.00;;;;;;;19.10;66.28;97006.50;1698736;84;21462;-81
2021/09/03 10:25:07;;;;;;;7.17;4.95;;;;;;;19.06;66.70;97008.78;1688411;84;21022;-81
2021/09/03 10:27:32;;;;;;;6.40;4.40;;;;;;;19.19;66.40;97009.12;1699195;84;21127;-81
2021/09/03 10:30:17;;;;;;;6.25;4.72;;;;;;;19.27;66.13;97004.08;1658522;84;21095;-81
2021/09/03 10:32:43;;;;;;;6.30;4.47;;;;;;;19.23;65.69;97005.55;1699316;84;21062;-81
2021/09/03 10:35:20;;;;;;;5.55;4.28;;;;;;;19.05;65.54;97008.49;1683777;84;21052;-81
2021/09/03 10:37:46;;;;;;;5.92;4.42;;;;;;;18.85;64.00;96997.34;1688608;84;21058;-81
2021/09/03 10:40:35;;;;;;;9.50;6.90;;;;;;;18.79;65.01;96990.33;1705426;84;21068;-81
2021/09/03 10:43:01;;;;;;;9.05;7.22;;;;;;;18.85;65.15;96994.20;1684440;84;21024;-81
2021/09/03 10:45:40;;;;;;;6.37;4.85;;;;;;;19.04;64.41;96993.72;1703970;84;21016;-82
2021/09/03 10:48:12;;;;;;;5.42;3.90;;;;;;;19.21;65.36;96982.58;1707304;84;21011;-81
2021/09/03 10:50:52;;;;;;;6.20;4.60;;;;;;;19.38;64.02;96991.48;1695857;84;21024;-82
2021/09/03 10:53:24;;;;;;;6.70;4.33;;;;;;;19.32;62.96;96989.72;1707304;84;21457;-81
2021/09/03 10:56:08;;;;;;;9.40;6.47;;;;;;;19.17;62.98;96980.88;1697028;84;21103;-81
2021/09/03 10:58:43;;;;;;;10.10;6.28;;;;;;;19.14;63.92;96985.28;1673725;84;21455;-81
2021/09/03 11:01:27;;;;;;;4.35;3.95;;;;;;;19.28;64.83;96982.78;1697768;84;21017;-81
2021/09/03 11:04:15;;;;;;;5.42;3.83;;;;;;;19.26;63.32;96977.44;1698314;84;21004;-81
2021/09/03 11:06:55;;;;;;;6.65;4.75;;;;;;;19.23;63.38;96980.53;1678733;84;21429;-81
2021/09/03 11:09:25;;;;;;;9.85;6.05;;;;;;;19.30;62.82;96978.09;1640795;85;21120;-81
2021/09/03 11:11:57;;;;;;;6.97;4.22;;;;;;;19.49;63.60;96975.70;1699456;84;21485;-81
2021/09/03 11:14:28;;;;;;;4.97;4.12;;;;;;;19.72;63.35;96972.39;1683175;84;21042;-81
2021/09/03 11:17:10;;;;;;;6.22;4.10;;;;;;;19.90;62.50;96972.03;1705883;83;21505;-82
2021/09/03 11:19:43;;;;;;;5.25;3.83;;;;;;;19.98;63.31;96973.01;1679869;84;21034;-81
2021/09/03 11:22:18;;;;;;;6.17;4.28;;;;;;;20.02;62.54;96971.55;1684625;84;21016;-81
2021/09/03 11:24:50;;;;;;;6.08;3.67;;;;;;;19.93;62.73;96970.25;1678904;84;21023;-81
2021/09/03 11:27:18;;;;;;;;;;;;;;;19.88;61.76;96963.03;1688403;84;21091;-81
2021/09/03 11:29:59;;;;;;;5.55;4.10;;;;;;;19.66;62.19;96956.13;1662443;84;20134;-81
2021/09/03 11:32:28;;;;;;;5.53;4.00;;;;;;;19.52;62.34;96959.95;1691575;84;21110;-81